Time;durP1;ratioP1;P1;durP2;ratioP2;P2;SDS_P1;SDS_P2;PMS_P1;PMS_P2;Temp;Humidity;BMP_temperature;BMP_pressure;BME280_temperature;BME280_humidity;BME280_pressure;Samples;Min_cycle;Max_cycle;Signal;HPM_P1;HPM_P2
2021/04/15 00:03:26;;;;;;;9.52;3.45;;;;;;;3.18;48.57;98531.44;10363859;28;20393;-74
2021/04/15 00:08:46;;;;;;;11.77;5.20;;;;;;;3.24;48.83;98539.63;10363693;28;20038;-75
2021/04/15 00:14:07;;;;;;;9.07;4.20;;;;;;;3.29;49.72;98542.31;10349163;28;20049;-74
2021/04/15 00:19:27;;;;;;;12.18;4.80;;;;;;;3.27;49.76;98533.81;10336169;28;20049;-74
2021/04/15 00:24:47;;;;;;;6.90;2.55;;;;;;;3.31;49.81;98528.00;10349330;28;20046;-74
2021/04/15 00:30:09;;;;;;;9.98;4.90;;;;;;;3.35;50.04;98525.66;10349254;28;20099;-74
2021/04/15 00:35:28;;;;;;;6.13;3.00;;;;;;;3.42;49.94;98528.53;10349061;28;20378;-74
2021/04/15 00:40:48;;;;;;;5.47;2.60;;;;;;;3.48;50.36;98514.66;10348653;28;20045;-74
2021/04/15 00:46:27;;;;;;;7.40;3.90;;;;;;;3.50;51.01;98517.63;10348642;28;20115;-74
2021/04/15 00:51:50;;;;;;;7.43;4.38;;;;;;;3.42;50.14;98503.69;10361526;28;20441;-74
2021/04/15 00:57:28;;;;;;;7.25;3.80;;;;;;;3.40;51.13;98511.03;10348310;28;20451;-74
2021/04/15 01:02:48;;;;;;;6.28;2.70;;;;;;;3.30;51.50;98510.69;10348560;28;20042;-75
2021/04/15 01:08:08;;;;;;;7.45;3.50;;;;;;;3.23;51.73;98516.06;10347750;28;20042;-74
2021/04/15 01:14:38;;;;;;;7.43;3.30;;;;;;;3.06;52.39;98514.31;10347510;28;20045;-74
2021/04/15 01:20:06;;;;;;;9.02;3.47;;;;;;;2.93;52.19;98511.53;10171928;29;20048;-74
2021/04/15 01:26:06;;;;;;;6.93;4.20;;;;;;;2.88;52.33;98510.31;10365505;28;20058;-74
2021/04/15 01:32:06;;;;;;;8.43;4.20;;;;;;;2.76;53.13;98511.75;10360546;28;20042;-74
2021/04/15 01:37:45;;;;;;;7.70;4.13;;;;;;;2.57;53.22;98511.03;10347885;28;20045;-74
2021/04/15 01:43:17;;;;;;;9.27;4.97;;;;;;;2.42;53.72;98497.72;10360326;28;20102;-75
2021/04/15 01:48:44;;;;;;;9.07;5.72;;;;;;;2.30;53.59;98501.84;10333371;28;20042;-74
2021/04/15 01:54:29;;;;;;;7.45;5.15;;;;;;;2.23;54.03;98499.72;10332954;28;20552;-74
2021/04/15 02:00:01;;;;;;;10.32;5.75;;;;;;;2.20;54.54;98503.50;10334867;28;20046;-74
2021/04/15 02:05:27;;;;;;;9.02;5.22;;;;;;;2.15;54.88;98496.06;10347677;28;20046;-74
2021/04/15 02:10:54;;;;;;;9.05;5.68;;;;;;;2.12;54.94;98505.34;10346303;28;20053;-74
2021/04/15 02:16:17;;;;;;;7.13;5.47;;;;;;;2.08;55.05;98496.63;10346708;28;20034;-74
2021/04/15 02:22:32;;;;;;;9.45;5.70;;;;;;;2.08;55.66;98496.63;10345966;28;20042;-74
2021/04/15 02:28:13;;;;;;;;;;;;;;;2.01;56.00;98498.69;10361906;28;20046;-74
2021/04/15 02:33:47;;;;;;;8.77;6.25;;;;;;;1.96;56.31;98491.25;10359726;28;19921;-74
2021/04/15 02:39:11;;;;;;;7.75;5.53;;;;;;;1.91;56.14;98505.09;10350293;28;20056;-74
2021/04/15 02:44:45;;;;;;;9.27;5.78;;;;;;;1.87;56.20;98488.88;10340259;28;20050;-74
2021/04/15 02:50:08;;;;;;;8.45;5.45;;;;;;;1.77;57.32;98487.72;10342038;28;20042;-74
2021/04/15 02:55:29;;;;;;;9.05;5.68;;;;;;;1.66;57.39;98490.59;10352690;28;20448;-74
2021/04/15 03:00:49;;;;;;;7.07;5.25;;;;;;;1.60;57.74;98489.91;10366398;28;20046;-74
2021/04/15 03:06:13;;;;;;;8.18;5.00;;;;;;;1.56;57.66;98498.44;10352286;28;20080;-74
2021/04/15 03:11:35;;;;;;;6.35;4.93;;;;;;;1.53;58.18;98493.22;10352101;28;20440;-75
2021/04/15 03:16:57;;;;;;;8.85;5.10;;;;;;;1.49;58.27;98495.53;10365392;28;20084;-75
2021/04/15 03:22:29;;;;;;;7.97;4.80;;;;;;;1.44;58.74;98489.53;10352095;28;20100;-74
2021/04/15 03:27:57;;;;;;;6.40;5.20;;;;;;;1.40;58.79;98491.84;10338740;28;20115;-75
2021/04/15 03:33:35;;;;;;;6.80;4.60;;;;;;;1.41;58.32;98490.59;10352058;28;20038;-75
2021/04/15 03:38:58;;;;;;;7.85;6.07;;;;;;;1.43;58.61;98488.06;10339740;28;20050;-75
2021/04/15 03:44:28;;;;;;;7.18;5.45;;;;;;;1.46;59.08;98493.81;10350877;28;20042;-75
2021/04/15 03:50:07;;;;;;;9.30;5.32;;;;;;;1.50;59.30;98495.00;10335867;28;20038;-76
2021/04/15 03:55:39;;;;;;;14.77;5.13;;;;;;;1.48;59.15;98494.03;10346001;28;20068;-75
2021/04/15 04:01:24;;;;;;;11.02;8.85;;;;;;;1.42;59.80;98494.81;10362410;28;20481;-75
2021/04/15 04:06:44;;;;;;;12.50;7.05;;;;;;;1.39;59.60;98506.84;10336026;28;20042;-75
2021/04/15 04:12:06;;;;;;;8.30;6.38;;;;;;;1.36;59.98;98501.66;10314155;28;20478;-75
2021/04/15 04:17:38;;;;;;;9.73;5.68;;;;;;;1.35;60.25;98500.13;10376394;28;20046;-75
2021/04/15 04:23:40;;;;;;;9.73;5.78;;;;;;;1.37;60.44;98509.38;10375350;28;20053;-74
2021/04/15 04:29:38;;;;;;;10.52;5.57;;;;;;;1.40;60.27;98508.34;10353629;28;20038;-76
2021/04/15 04:34:59;;;;;;;9.63;5.50;;;;;;;1.50;60.56;98511.50;10326716;28;20042;-75
2021/04/15 04:40:33;;;;;;;7.90;5.38;;;;;;;1.59;60.23;98513.19;10335339;28;20100;-75
2021/04/15 04:46:02;;;;;;;8.25;5.40;;;;;;;1.75;60.33;98515.03;10294591;28;20053;-75
2021/04/15 04:51:22;;;;;;;9.02;5.65;;;;;;;2.03;60.54;98517.47;10347440;28;20058;-77
2021/04/15 04:56:46;;;;;;;6.82;4.93;;;;;;;2.37;59.90;98512.28;10375133;28;20045;-75
2021/04/15 05:02:06;;;;;;;9.15;5.28;;;;;;;2.78;59.52;98520.25;10374554;28;20046;-75
2021/04/15 05:07:26;;;;;;;7.45;5.30;;;;;;;3.17;59.68;98535.47;10374940;28;20505;-74
2021/04/15 05:12:49;;;;;;;9.23;4.70;;;;;;;3.60;59.05;98526.25;10347691;28;20393;-74
2021/04/15 05:18:12;;;;;;;6.15;4.53;;;;;;;4.15;58.66;98534.75;10347504;28;20050;-75
2021/04/15 05:23:44;;;;;;;8.30;5.05;;;;;;;5.33;57.96;98533.69;10374575;28;20456;-74
2021/04/15 05:29:05;;;;;;;5.93;4.40;;;;;;;7.02;58.42;98527.78;10370258;28;20049;-75
2021/04/15 05:34:34;;;;;;;7.35;4.22;;;;;;;8.89;56.86;98539.03;10371528;28;20053;-76
2021/04/15 05:39:55;;;;;;;5.78;3.75;;;;;;;10.59;55.15;98535.00;10372703;28;20100;-74
2021/04/15 05:45:22;;;;;;;5.65;3.33;;;;;;;12.24;53.35;98536.41;10373815;28;20404;-74
2021/04/15 05:50:52;;;;;;;5.03;3.25;;;;;;;14.13;49.61;98539.75;10373298;28;20060;-75
2021/04/15 05:56:53;;;;;;;5.32;3.20;;;;;;;15.68;46.64;98536.19;10347017;28;20046;-75
2021/04/15 06:02:37;;;;;;;6.50;3.47;;;;;;;18.83;41.26;98539.09;10349806;28;20519;-76
2021/04/15 06:08:01;;;;;;;4.13;2.83;;;;;;;21.70;35.18;98542.66;10374148;28;20108;-76
2021/04/15 06:13:27;;;;;;;6.35;2.65;;;;;;;24.34;29.01;98537.38;10376005;28;20042;-76
2021/04/15 06:18:51;;;;;;;3.58;2.67;;;;;;;25.39;23.90;98542.03;10381199;28;20091;-76
2021/04/15 06:24:24;;;;;;;5.55;2.55;;;;;;;25.79;20.59;98541.44;10367263;28;20046;-77
2021/04/15 06:29:56;;;;;;;4.15;2.58;;;;;;;26.50;18.96;98542.75;10365963;28;20046;-77
2021/04/15 06:35:26;;;;;;;4.85;2.55;;;;;;;27.52;16.92;98536.44;10365968;28;20050;-76
2021/04/15 06:40:53;;;;;;;4.20;2.35;;;;;;;29.59;15.64;98531.81;10380055;28;20042;-75
2021/04/15 06:47:05;;;;;;;2.45;1.83;;;;;;;29.69;13.71;98531.16;10380748;28;20042;-76
2021/04/15 06:52:46;;;;;;;4.05;1.98;;;;;;;30.11;13.33;98533.47;10345437;28;20054;-75
2021/04/15 06:58:23;;;;;;;3.13;2.03;;;;;;;29.42;12.88;98532.44;10380038;28;20050;-75
2021/04/15 07:04:14;;;;;;;2.58;2.13;;;;;;;29.02;12.76;98528.63;10366138;28;20060;-76
2021/04/15 07:10:17;;;;;;;3.63;2.10;;;;;;;30.76;11.80;98524.16;10370291;28;20050;-76
2021/04/15 07:15:55;;;;;;;4.43;1.58;;;;;;;30.23;11.47;98523.41;10334848;28;20390;-74
2021/04/15 07:21:30;;;;;;;5.68;1.70;;;;;;;28.84;11.48;98537.09;10379698;28;20041;-74
2021/04/15 07:27:28;;;;;;;2.25;1.40;;;;;;;27.21;11.49;98525.97;10376569;28;20439;-75
2021/04/15 07:33:45;;;;;;;3.03;1.48;;;;;;;22.77;12.86;98527.81;10338285;28;20045;-77
2021/04/15 07:39:21;;;;;;;1.67;1.30;;;;;;;24.58;14.32;98534.41;10338398;28;20398;-76
2021/04/15 07:44:53;;;;;;;3.38;1.27;;;;;;;25.47;13.34;98532.88;10310338;28;20046;-76
2021/04/15 07:50:22;;;;;;;2.08;1.15;;;;;;;25.44;12.92;98539.97;10336382;28;20039;-76
2021/04/15 07:56:34;;;;;;;3.10;1.30;;;;;;;24.16;13.06;98541.19;10337102;28;20058;-75
2021/04/15 08:02:19;;;;;;;1.63;0.85;;;;;;;23.81;13.68;98535.94;10337916;28;20046;-75
2021/04/15 08:07:49;;;;;;;1.20;0.85;;;;;;;24.11;13.69;98533.91;10374741;28;20042;-75
2021/04/15 08:13:29;;;;;;;2.10;0.73;;;;;;;24.67;13.45;98533.94;10337537;28;20049;-76
2021/04/15 08:18:58;;;;;;;1.85;0.60;;;;;;;24.87;12.94;98538.66;10334132;28;20047;-74
2021/04/15 08:24:54;;;;;;;1.90;0.90;;;;;;;22.31;13.87;98537.69;10336241;28;20117;-76
2021/04/15 08:31:11;;;;;;;4.22;1.00;;;;;;;20.32;14.77;98536.50;10335446;28;20387;-76
2021/04/15 08:36:48;;;;;;;2.95;0.90;;;;;;;18.97;16.35;98535.47;10321313;28;20046;-76
2021/04/15 08:43:07;;;;;;;2.60;0.90;;;;;;;17.53;16.78;98532.53;10335363;28;20104;-76
2021/04/15 08:48:44;;;;;;;1.52;0.70;;;;;;;16.16;18.44;98527.06;10335008;28;20043;-76
2021/04/15 08:54:31;;;;;;;25.05;4.32;;;;;;;15.76;19.01;98536.69;10333760;28;20489;-76
2021/04/15 09:00:24;;;;;;;5.63;0.90;;;;;;;16.41;19.18;98534.13;10321162;28;20047;-77
2021/04/15 09:06:35;;;;;;;6.53;1.00;;;;;;;17.42;18.82;98522.78;10356139;28;20499;-76
2021/04/15 09:12:05;;;;;;;1.35;0.70;;;;;;;17.88;18.75;98526.63;10361387;28;20386;-77
2021/04/15 09:17:36;;;;;;;9.23;0.85;;;;;;;18.37;18.51;98531.16;10374655;28;20045;-75
2021/04/15 09:23:31;;;;;;;3.25;0.60;;;;;;;18.21;18.76;98534.63;10374545;28;20038;-76
2021/04/15 09:29:30;;;;;;;2.33;0.70;;;;;;;17.54;18.71;98524.78;10371627;28;20092;-75
2021/04/15 09:35:12;;;;;;;2.60;0.80;;;;;;;17.19;19.13;98528.59;10372129;28;20053;-73
2021/04/15 09:40:52;;;;;;;2.58;0.80;;;;;;;17.40;19.32;98519.13;10373944;28;20100;-75
2021/04/15 09:46:32;;;;;;;3.28;0.90;;;;;;;17.19;19.34;98516.59;10359909;28;20049;-75
2021/04/15 09:52:12;;;;;;;1.73;0.60;;;;;;;16.72;19.38;98522.50;10357446;28;20057;-73
2021/04/15 09:58:09;;;;;;;3.95;0.60;;;;;;;15.70;20.24;98517.34;10372545;28;20419;-73
2021/04/15 10:04:23;;;;;;;1.83;0.55;;;;;;;14.52;21.43;98503.69;10355299;28;20046;-74
2021/04/15 10:10:11;;;;;;;1.00;0.43;;;;;;;14.40;21.96;98497.28;10358619;28;20058;-76
2021/04/15 10:15:42;;;;;;;2.03;0.73;;;;;;;14.19;21.99;98498.03;10358904;28;20050;-74
2021/04/15 10:21:48;;;;;;;3.03;0.70;;;;;;;14.29;22.79;98498.69;10373346;28;20452;-75
2021/04/15 10:27:36;;;;;;;2.90;0.93;;;;;;;14.07;22.57;98494.41;10334206;28;20108;-74
2021/04/15 10:33:30;;;;;;;1.33;0.75;;;;;;;13.10;23.65;98497.69;10372847;28;20041;-75
2021/04/15 10:39:21;;;;;;;1.80;0.63;;;;;;;13.11;24.81;98496.34;10371756;28;20049;-79
2021/04/15 10:45:08;;;;;;;1.80;0.50;;;;;;;12.84;24.40;98502.94;10372666;28;20056;-77
2021/04/15 10:50:34;;;;;;;3.70;0.52;;;;;;;12.38;25.56;98514.34;10369610;28;20096;-77
2021/04/15 10:56:25;;;;;;;1.58;0.40;;;;;;;11.76;26.99;98503.47;10372528;28;20041;-77
2021/04/15 11:01:47;;;;;;;1.67;0.50;;;;;;;11.65;27.47;98501.25;10378762;28;20057;-78
2021/04/15 11:07:23;;;;;;;1.10;0.40;;;;;;;11.11;28.59;98504.16;10368368;28;20050;-81
2021/04/15 11:12:42;;;;;;;2.95;0.70;;;;;;;11.09;28.16;98498.38;10380426;28;20438;-77
2021/04/15 11:18:08;;;;;;;2.25;0.70;;;;;;;10.93;30.08;98510.38;10379111;28;20413;-80
2021/04/15 11:23:29;;;;;;;5.22;0.77;;;;;;;10.51;30.41;98516.84;10355813;28;20042;-79
2021/04/15 11:28:51;;;;;;;1.40;0.70;;;;;;;9.88;31.58;98515.28;10343872;28;20039;-79
2021/04/15 11:34:24;;;;;;;2.65;0.70;;;;;;;10.12;32.27;98501.81;10325297;28;20409;-79
2021/04/15 11:39:44;;;;;;;3.78;0.60;;;;;;;11.41;33.06;98494.56;10346695;28;20052;-79
2021/04/15 11:45:06;;;;;;;1.73;0.77;;;;;;;12.43;32.79;98488.09;10315878;28;20037;-79
2021/04/15 11:50:25;;;;;;;1.30;0.63;;;;;;;13.26;32.36;98484.84;10353565;28;20034;-80
2021/04/15 11:55:45;;;;;;;2.33;0.70;;;;;;;13.30;32.05;98479.50;10343075;28;20413;-79
2021/04/15 12:01:05;;;;;;;1.42;0.55;;;;;;;12.32;31.98;98495.03;10329129;28;20041;-78
2021/04/15 12:06:30;;;;;;;2.83;0.60;;;;;;;11.80;32.50;98496.75;10329496;28;20057;-79
2021/04/15 12:12:12;;;;;;;2.15;0.60;;;;;;;11.27;33.30;98482.28;10324625;28;20833;-78
2021/04/15 12:17:48;;;;;;;2.30;0.70;;;;;;;10.95;34.13;98488.94;10345797;28;20734;-78
2021/04/15 12:23:20;;;;;;;1.42;0.45;;;;;;;11.28;34.18;98478.19;10355399;28;20104;-80
2021/04/15 12:28:44;;;;;;;3.78;1.00;;;;;;;12.42;34.01;98469.81;10342832;28;20042;-79
2021/04/15 12:34:28;;;;;;;1.55;0.60;;;;;;;13.20;32.57;98464.78;10339780;28;20038;-80
2021/04/15 12:39:50;;;;;;;;;;;;;;;13.03;32.29;98473.41;10353692;28;20037;-79
2021/04/15 12:45:39;;;;;;;2.03;0.40;;;;;;;12.94;31.83;98465.75;10337917;28;20076;-79
2021/04/15 12:51:08;;;;;;;0.88;0.30;;;;;;;12.53;31.82;98469.22;10332200;28;20042;-79
2021/04/15 12:56:52;;;;;;;3.38;0.55;;;;;;;12.29;32.11;98485.00;10328459;28;20130;-79
2021/04/15 13:02:19;;;;;;;4.93;0.60;;;;;;;11.66;33.53;98471.22;10330697;28;20057;-80
2021/04/15 13:07:40;;;;;;;3.17;0.98;;;;;;;11.20;34.32;98474.78;10347578;28;20050;-79
2021/04/15 13:13:00;;;;;;;1.33;0.43;;;;;;;11.26;33.81;98477.28;10334890;28;20052;-79
2021/04/15 13:18:34;;;;;;;2.45;0.45;;;;;;;11.12;34.94;98474.16;10342570;28;20117;-80
2021/04/15 13:23:54;;;;;;;1.83;0.60;;;;;;;10.98;35.19;98473.78;10358253;28;20046;-79
2021/04/15 13:29:19;;;;;;;2.50;0.70;;;;;;;10.86;35.45;98461.69;10334106;28;20093;-79
2021/04/15 13:35:17;;;;;;;3.85;0.50;;;;;;;11.02;35.65;98462.22;10329936;28;20056;-79
2021/04/15 13:40:51;;;;;;;1.60;0.70;;;;;;;11.25;35.95;98456.25;10339183;28;20049;-80
2021/04/15 13:46:30;;;;;;;1.48;0.57;;;;;;;11.28;36.06;98449.50;10321053;28;20054;-79
2021/04/15 13:51:52;;;;;;;1.63;0.50;;;;;;;10.67;36.07;98451.16;10351155;28;20541;-78
2021/04/15 13:57:12;;;;;;;4.00;2.50;;;;;;;10.26;36.34;98447.94;10336499;28;20046;-78
2021/04/15 14:02:46;;;;;;;1.48;0.60;;;;;;;10.28;37.37;98448.09;10353462;28;20527;-78
2021/04/15 14:08:33;;;;;;;1.92;0.60;;;;;;;10.42;36.90;98445.72;10336171;28;20378;-80
2021/04/15 14:13:54;;;;;;;2.28;0.70;;;;;;;10.26;37.71;98447.22;10331880;28;20080;-78
2021/04/15 14:19:28;;;;;;;1.60;0.77;;;;;;;10.31;37.07;98455.31;10305113;28;20042;-78
2021/04/15 14:24:54;;;;;;;2.03;0.63;;;;;;;10.31;37.36;98451.78;10334358;28;20050;-78
2021/04/15 14:30:17;;;;;;;2.08;0.75;;;;;;;10.46;37.47;98454.41;10332470;28;20046;-79
2021/04/15 14:35:38;;;;;;;2.15;0.73;;;;;;;10.40;37.07;98451.13;10322963;28;20042;-78
2021/04/15 14:41:03;;;;;;;2.15;0.70;;;;;;;10.39;37.52;98455.22;10302912;28;20093;-76
2021/04/15 14:46:34;;;;;;;2.25;0.60;;;;;;;10.10;37.47;98446.63;10313447;28;20050;-79
2021/04/15 14:52:31;;;;;;;0.90;0.40;;;;;;;9.81;37.45;98442.84;10299611;28;20058;-77
2021/04/15 14:57:59;;;;;;;2.03;0.47;;;;;;;9.29;37.84;98440.00;10264203;28;20047;-78
2021/04/15 15:03:34;;;;;;;0.95;0.50;;;;;;;9.04;38.36;98440.72;10300380;28;20090;-77
2021/04/15 15:08:53;;;;;;;1.45;0.60;;;;;;;8.76;39.52;98447.41;10312446;28;20039;-77
2021/04/15 15:14:17;;;;;;;1.50;0.60;;;;;;;8.57;39.30;98444.38;10299501;28;20050;-75
2021/04/15 15:19:39;;;;;;;1.10;0.50;;;;;;;8.17;39.87;98438.78;10350287;28;20050;-76
2021/04/15 15:25:01;;;;;;;1.42;0.60;;;;;;;7.89;40.09;98442.56;10356938;28;20038;-75
2021/04/15 15:30:36;;;;;;;1.73;0.98;;;;;;;7.80;40.67;98434.81;10340157;28;20047;-76
2021/04/15 15:36:05;;;;;;;2.45;0.60;;;;;;;7.64;41.15;98443.19;10345136;28;20042;-77
2021/04/15 15:41:38;;;;;;;1.38;0.60;;;;;;;7.59;41.57;98446.16;10338486;28;20034;-76
2021/04/15 15:46:57;;;;;;;2.63;0.80;;;;;;;7.42;43.47;98438.41;10322415;28;20046;-80
2021/04/15 15:52:28;;;;;;;1.05;0.60;;;;;;;7.28;43.17;98442.69;10324249;28;20050;-75
2021/04/15 15:57:54;;;;;;;1.20;0.60;;;;;;;7.20;43.75;98430.81;10324619;28;20397;-77
2021/04/15 16:03:28;;;;;;;2.10;0.73;;;;;;;7.09;44.41;98432.69;10310548;28;20449;-77
2021/04/15 16:08:50;;;;;;;2.72;0.65;;;;;;;6.93;44.71;98439.50;10324041;28;20461;-76
2021/04/15 16:14:11;;;;;;;2.80;1.00;;;;;;;6.69;45.50;98437.25;10309831;28;20101;-78
2021/04/15 16:19:32;;;;;;;1.83;0.77;;;;;;;6.60;45.68;98430.22;10315038;28;20035;-76
2021/04/15 16:24:55;;;;;;;2.75;1.00;;;;;;;6.41;46.25;98438.84;10337947;28;20112;-77
2021/04/15 16:30:20;;;;;;;1.85;0.65;;;;;;;6.20;47.35;98432.69;10339230;28;20054;-76
2021/04/15 16:35:40;;;;;;;2.92;1.20;;;;;;;5.88;48.37;98422.72;10337315;28;20042;-78
2021/04/15 16:41:00;;;;;;;3.38;1.15;;;;;;;5.69;48.80;98428.56;10350590;28;20049;-79
2021/04/15 16:46:20;;;;;;;2.55;1.00;;;;;;;5.57;49.72;98432.16;10349626;28;20123;-80
2021/04/15 16:51:40;;;;;;;2.55;1.13;;;;;;;5.42;50.34;98430.03;10349817;28;20092;-79
2021/04/15 16:57:03;;;;;;;2.42;1.20;;;;;;;5.27;52.14;98424.38;10362500;28;20393;-75
2021/04/15 17:02:23;;;;;;;2.33;1.40;;;;;;;5.12;51.75;98431.28;10332963;28;20042;-79
2021/04/15 17:07:42;;;;;;;2.33;1.23;;;;;;;5.08;51.99;98433.66;10286816;28;20051;-79
2021/04/15 17:13:03;;;;;;;2.38;1.17;;;;;;;5.01;53.05;98433.56;10310464;28;20487;-79
2021/04/15 17:18:24;;;;;;;3.40;1.63;;;;;;;4.89;54.11;98447.69;10310031;28;20142;-76
2021/04/15 17:23:43;;;;;;;2.47;1.60;;;;;;;4.77;55.16;98426.38;10296397;28;20049;-74
2021/04/15 17:29:04;;;;;;;4.47;1.67;;;;;;;4.59;54.77;98434.31;10308213;28;20402;-75
2021/04/15 17:34:24;;;;;;;1.40;0.90;;;;;;;4.52;55.54;98423.16;10308077;28;20043;-75
2021/04/15 17:39:43;;;;;;;2.10;1.00;;;;;;;4.45;55.12;98434.91;10294053;28;20054;-74
2021/04/15 17:45:05;;;;;;;2.30;0.85;;;;;;;4.42;55.10;98431.16;10307499;28;20422;-75
2021/04/15 17:50:33;;;;;;;1.77;0.90;;;;;;;4.43;55.67;98424.38;10293870;28;20114;-75
2021/04/15 17:55:52;;;;;;;2.42;1.30;;;;;;;4.36;56.16;98427.06;10292961;28;20042;-75
2021/04/15 18:01:12;;;;;;;2.42;1.33;;;;;;;4.32;56.92;98427.38;10338904;28;20042;-75
2021/04/15 18:06:32;;;;;;;1.63;1.15;;;;;;;4.24;56.90;98432.06;10328755;28;20077;-79
2021/04/15 18:11:51;;;;;;;1.52;1.08;;;;;;;4.14;56.77;98434.53;10294272;28;20042;-77
2021/04/15 18:17:11;;;;;;;3.33;2.33;;;;;;;4.07;57.05;98429.69;10323477;28;20046;-75
2021/04/15 18:22:30;;;;;;;8.07;6.55;;;;;;;3.94;58.03;98435.94;10320366;28;20049;-76
2021/04/15 18:27:50;;;;;;;4.85;3.42;;;;;;;3.89;58.10;98436.09;10306728;28;20113;-75
2021/04/15 18:33:14;;;;;;;4.18;2.00;;;;;;;3.87;58.69;98435.88;10320450;28;20050;-76
2021/04/15 18:38:35;;;;;;;3.15;2.10;;;;;;;3.87;58.66;98430.34;10334261;28;20440;-77
2021/04/15 18:43:55;;;;;;;4.10;2.13;;;;;;;3.79;59.94;98435.78;10306776;28;20122;-76
2021/04/15 18:49:14;;;;;;;3.85;2.53;;;;;;;3.71;59.28;98441.19;10307055;28;20050;-76
2021/04/15 18:54:34;;;;;;;3.83;1.73;;;;;;;3.66;60.33;98439.25;10306684;28;20054;-75
2021/04/15 18:59:54;;;;;;;3.08;1.60;;;;;;;3.64;59.87;98439.06;10319449;28;20050;-77
2021/04/15 19:05:17;;;;;;;2.80;1.38;;;;;;;3.63;60.45;98443.09;10318530;28;20409;-79
2021/04/15 19:10:40;;;;;;;3.47;1.23;;;;;;;3.62;60.57;98447.13;10339234;28;20042;-79
2021/04/15 19:16:00;;;;;;;5.13;1.58;;;;;;;3.61;61.04;98440.13;10305592;28;20405;-80
2021/04/15 19:21:21;;;;;;;3.80;1.35;;;;;;;3.59;61.01;98442.69;10313418;28;20053;-80
2021/04/15 19:26:42;;;;;;;3.75;1.52;;;;;;;3.60;61.68;98433.13;10339209;28;20404;-80
2021/04/15 19:32:03;;;;;;;2.45;1.80;;;;;;;3.57;61.60;98438.94;10352537;28;20046;-80
2021/04/15 19:37:24;;;;;;;3.53;2.10;;;;;;;3.53;61.88;98444.78;10338814;28;20103;-78
2021/04/15 19:42:44;;;;;;;4.72;2.13;;;;;;;3.43;61.90;98430.66;10367123;28;20459;-81
2021/04/15 19:48:10;;;;;;;3.55;2.53;;;;;;;3.44;62.56;98434.16;10352507;28;20049;-76
2021/04/15 19:53:32;;;;;;;3.67;2.58;;;;;;;3.42;62.41;98422.91;10352595;28;20061;-76
2021/04/15 19:58:53;;;;;;;3.05;1.98;;;;;;;3.34;63.13;98424.81;10337429;28;20100;-77
2021/04/15 20:04:13;;;;;;;3.17;2.08;;;;;;;3.31;64.05;98428.66;10352182;28;20057;-76
2021/04/15 20:09:33;;;;;;;4.25;1.70;;;;;;;3.22;64.51;98427.03;10364384;28;20049;-75
2021/04/15 20:14:52;;;;;;;3.10;1.92;;;;;;;3.17;64.33;98412.06;10364263;28;20057;-77
2021/04/15 20:20:15;;;;;;;4.55;2.20;;;;;;;3.10;63.85;98415.47;10350181;28;20508;-77
2021/04/15 20:25:36;;;;;;;2.72;2.08;;;;;;;3.10;64.42;98415.47;10363802;28;20069;-75
2021/04/15 20:30:56;;;;;;;3.30;2.28;;;;;;;3.13;63.86;98408.88;10361283;28;20072;-76
2021/04/15 20:36:16;;;;;;;3.08;2.08;;;;;;;3.08;64.09;98414.47;10314953;28;20382;-75
2021/04/15 20:41:35;;;;;;;4.38;1.80;;;;;;;3.10;64.44;98414.72;10304665;28;20093;-77
2021/04/15 20:46:55;;;;;;;3.35;1.73;;;;;;;3.09;65.76;98411.22;10338708;28;20085;-74
2021/04/15 20:52:15;;;;;;;5.43;1.80;;;;;;;3.07;65.91;98408.22;10327307;28;20447;-75
2021/04/15 20:57:35;;;;;;;3.38;1.45;;;;;;;3.05;65.73;98410.03;10309295;28;20080;-76
2021/04/15 21:02:55;;;;;;;2.60;1.63;;;;;;;3.05;65.48;98402.50;10305420;28;20482;-75
2021/04/15 21:08:15;;;;;;;2.72;1.40;;;;;;;3.04;66.16;98392.75;10341511;28;20068;-75
2021/04/15 21:13:35;;;;;;;1.75;0.98;;;;;;;2.95;66.07;98393.16;10347811;28;20042;-75
2021/04/15 21:18:56;;;;;;;4.32;1.42;;;;;;;2.98;65.54;98392.09;10361279;28;20469;-75
2021/04/15 21:24:20;;;;;;;2.33;1.35;;;;;;;2.94;65.94;98380.63;10361545;28;20076;-75
2021/04/15 21:29:40;;;;;;;3.38;1.73;;;;;;;3.01;66.45;98376.50;10361013;28;20054;-77
2021/04/15 21:35:01;;;;;;;2.67;1.83;;;;;;;3.07;65.73;98382.66;10347033;28;20394;-75
2021/04/15 21:40:21;;;;;;;2.65;1.70;;;;;;;3.10;66.38;98376.84;10360868;28;20042;-75
2021/04/15 21:45:42;;;;;;;2.15;1.55;;;;;;;3.12;66.35;98374.28;10333419;28;20041;-76
2021/04/15 21:51:01;;;;;;;3.80;1.92;;;;;;;3.08;66.31;98365.56;10346628;28;20046;-75
2021/04/15 21:56:21;;;;;;;1.77;1.40;;;;;;;3.02;66.55;98364.94;10360116;28;20049;-75
2021/04/15 22:01:41;;;;;;;2.70;1.60;;;;;;;3.04;67.10;98369.94;10346680;28;20050;-75
2021/04/15 22:07:01;;;;;;;7.47;4.70;;;;;;;3.07;67.18;98372.38;10346422;28;20041;-75
2021/04/15 22:12:21;;;;;;;4.63;3.10;;;;;;;3.04;67.42;98364.41;10346039;28;20060;-75
2021/04/15 22:17:41;;;;;;;3.63;2.60;;;;;;;3.08;67.36;98362.81;10346100;28;20053;-75
2021/04/15 22:23:01;;;;;;;3.83;2.67;;;;;;;3.06;68.03;98351.56;10345887;28;20089;-74
2021/04/15 22:28:23;;;;;;;3.03;1.98;;;;;;;3.03;67.24;98355.41;10346086;28;20050;-75
2021/04/15 22:33:43;;;;;;;3.25;2.60;;;;;;;3.07;66.81;98360.59;10345799;28;20053;-75
2021/04/15 22:39:04;;;;;;;3.08;2.45;;;;;;;3.05;67.14;98363.88;10332389;28;20065;-75
2021/04/15 22:44:24;;;;;;;2.55;2.15;;;;;;;3.09;67.03;98361.56;10345557;28;20061;-75
2021/04/15 22:49:45;;;;;;;2.63;1.95;;;;;;;3.11;67.61;98338.97;10345615;28;20085;-76
2021/04/15 22:55:13;;;;;;;6.07;2.55;;;;;;;3.09;67.45;98342.25;10347330;28;20061;-75
2021/04/15 23:00:45;;;;;;;3.38;2.10;;;;;;;3.09;67.45;98342.25;10340458;28;20048;-75
2021/04/15 23:06:05;;;;;;;2.67;2.08;;;;;;;3.05;67.45;98347.34;10342218;28;20046;-75
2021/04/15 23:11:25;;;;;;;3.00;2.33;;;;;;;3.03;67.56;98349.13;10352536;28;20507;-75
2021/04/15 23:16:45;;;;;;;2.80;2.40;;;;;;;3.03;67.46;98338.09;10352662;28;20038;-75
2021/04/15 23:22:05;;;;;;;3.30;2.45;;;;;;;3.01;68.00;98330.38;10352512;28;20132;-75
2021/04/15 23:27:27;;;;;;;3.53;2.63;;;;;;;3.04;68.21;98329.31;10351938;28;20049;-75
2021/04/15 23:32:48;;;;;;;5.30;2.80;;;;;;;3.06;68.05;98329.50;10352613;28;20042;-75
2021/04/15 23:38:10;;;;;;;3.83;3.00;;;;;;;3.03;67.40;98327.81;10337963;28;20053;-75
2021/04/15 23:43:29;;;;;;;3.08;2.60;;;;;;;3.06;68.17;98326.00;10338064;28;20481;-75
2021/04/15 23:48:49;;;;;;;3.40;2.42;;;;;;;3.10;67.69;98332.72;10351080;28;20473;-74
2021/04/15 23:54:09;;;;;;;2.90;2.30;;;;;;;3.09;68.10;98322.22;10337336;28;20496;-75
2021/04/15 23:59:28;;;;;;;3.28;2.45;;;;;;;3.09;67.80;98314.69;10350917;28;20057;-75
